Aegean Tiffany — SVAE9 — position and weather

sailwx.info

Track history (hours):
 
Tides and Currents Weather Stations Pressure Air Temp Water Temp Dewpoint Dewpoint Depression Visibility Wind Speed Wind Dir Waves Ship Positions

Aegean Tiffany

Last reported at 2017-Jun-22 22:15 UTC. Time now 2017-Jun-27 22:36 UTC.
Position N 37°55' E 023°11'.

Length 80 m; draft 5.6 m.

Type: Tanker. MMSI: 240870000.

Date/timePositionNaut miles runAvg speedWind from/ knotsBaromVisibWave heightAir tempDewpointWater temp
2017-Jun-22 22:15N 37°55' E 023°11'2 7.9
2017-Jun-22 22:00N 37°55' E 023°14'4 7.6
2017-Jun-22 21:30N 37°56' E 023°18'4 7.9
2017-Jun-22 21:00N 37°57' E 023°23'2 5.0
2017-Jun-22 20:31N 37°59' E 023°25'4 7.7
2017-Jun-22 20:00N 38°01' E 023°29'2 4.9
2017-Jun-22 19:30N 38°02' E 023°32'0 0.0
2017-Jun-22 19:01N 38°02' E 023°32'0 0.0
2017-Jun-22 06:56N 38°02' E 023°32'0 0.0
2017-Jun-22 06:30N 38°02' E 023°32'0 0.0
2017-Jun-22 06:00N 38°02' E 023°32'0 0.0
2017-Jun-22 05:30N 38°02' E 023°32'0 0.0
2017-Jun-22 05:00N 38°02' E 023°32'0 0.0
2017-Jun-22 04:30N 38°02' E 023°32'0 0.0
2017-Jun-22 04:00N 38°02' E 023°32'0 0.0
2017-Jun-22 03:30N 38°02' E 023°32'0 0.0
2017-Jun-22 03:00N 38°02' E 023°32'0 0.0
2017-Jun-22 02:30N 38°02' E 023°32'0 0.0
2017-Jun-22 02:00N 38°02' E 023°32'0 0.0
2017-Jun-22 01:30N 38°02' E 023°32'0 0.0
2017-Jun-22 01:00N 38°02' E 023°32'0 0.0
2017-Jun-22 00:30N 38°02' E 023°32'0 0.4
2017-Jun-22 00:01N 38°02' E 023°32'3 6.2
2017-Jun-21 23:30N 38°02' E 023°36'0 0.2
2017-Jun-21 23:00N 38°02' E 023°36'0 0.0
2017-Jun-21 22:30N 38°02' E 023°36'0 0.0
2017-Jun-21 22:00N 38°02' E 023°36'0 0.0
2017-Jun-21 21:31N 38°02' E 023°36'0 0.0
2017-Jun-21 21:00N 38°02' E 023°36'0 0.0
2017-Jun-21 20:30N 38°02' E 023°36'0 0.0
2017-Jun-21 20:01N 38°02' E 023°36'0 0.0
2017-Jun-21 19:30N 38°02' E 023°36'0 0.0
2017-Jun-21 19:00N 38°02' E 023°36'0 0.0
2017-Jun-21 18:30N 38°02' E 023°36'1 2.2
2017-Jun-21 18:00N 38°02' E 023°34'3 5.7
2017-Jun-21 17:30N 38°02' E 023°31'0 0.0
2017-Jun-21 17:00N 38°02' E 023°31'0 0.0
2017-Jun-21 16:30N 38°02' E 023°31'0 0.0
2017-Jun-21 16:01N 38°02' E 023°31'0 0.0
2017-Jun-21 15:30N 38°02' E 023°31'0 0.0
2017-Jun-21 15:00N 38°02' E 023°31'0 0.0
2017-Jun-21 14:30N 38°02' E 023°31'0 0.0
2017-Jun-21 13:31N 38°02' E 023°31'0 0.0
2017-Jun-21 13:00N 38°02' E 023°31'0 0.0
2017-Jun-21 12:30N 38°02' E 023°31'0 0.0
2017-Jun-21 12:00N 38°02' E 023°31'0 0.0
2017-Jun-21 11:30N 38°02' E 023°31'0 0.0
2017-Jun-21 11:00N 38°02' E 023°31'0 0.0
2017-Jun-21 10:30N 38°02' E 023°31'0 0.0
2017-Jun-21 10:00N 38°02' E 023°31'0 0.0
2017-Jun-21 09:31N 38°02' E 023°31'0 0.0
2017-Jun-21 09:00N 38°02' E 023°31'0 0.3
2017-Jun-21 08:30N 38°02' E 023°31'3 6.0
2017-Jun-21 08:00N 38°00' E 023°28'3 5.6
2017-Jun-21 07:31N 37°58' E 023°26'4 8.2
2017-Jun-21 07:00N 37°57' E 023°21'4 8.7
2017-Jun-21 06:30N 37°56' E 023°16'4 8.7
2017-Jun-21 06:00N 37°55' E 023°10'  
2017-Jun-17 21:59N 37°55' E 023°09'4 7.8
2017-Jun-17 21:30N 37°56' E 023°14'4 8.1
2017-Jun-17 21:01N 37°56' E 023°19'4 8.0
2017-Jun-17 20:30N 37°57' E 023°24'3 5.0
2017-Jun-17 20:00N 37°59' E 023°25'4 7.9
2017-Jun-17 19:30N 38°01' E 023°30'2 3.9
2017-Jun-17 19:00N 38°02' E 023°32'0 0.0
2017-Jun-17 05:22N 38°02' E 023°32'1 1.9
2017-Jun-17 05:01N 38°02' E 023°31'0 0.7
2017-Jun-17 04:31N 38°02' E 023°31'0 0.0
2017-Jun-17 04:01N 38°02' E 023°31'0 0.0
2017-Jun-17 03:31N 38°02' E 023°31'0 0.0
2017-Jun-17 03:00N 38°02' E 023°31'0 0.0
2017-Jun-17 02:30N 38°02' E 023°31'0 0.0
2017-Jun-17 02:01N 38°02' E 023°31'0 0.0
2017-Jun-17 01:31N 38°02' E 023°31'0 0.0
2017-Jun-17 01:00N 38°02' E 023°31'0 0.0
2017-Jun-17 00:30N 38°02' E 023°31'0 0.0
2017-Jun-17 00:00N 38°02' E 023°31'0 0.4
2017-Jun-16 23:31N 38°02' E 023°31'3 6.4
2017-Jun-16 23:01N 38°02' E 023°35'1 1.2
2017-Jun-16 22:30N 38°02' E 023°36'0 0.0
2017-Jun-16 22:01N 38°02' E 023°36'0 0.0
2017-Jun-16 21:30N 38°02' E 023°36'0 0.0
2017-Jun-16 21:00N 38°02' E 023°36'0 0.0
2017-Jun-16 20:30N 38°02' E 023°36'0 0.0
2017-Jun-16 20:00N 38°02' E 023°36'0 0.0
2017-Jun-16 19:31N 38°02' E 023°36'0 0.0
2017-Jun-16 19:00N 38°02' E 023°36'0 0.0
2017-Jun-16 18:31N 38°02' E 023°36'0 0.0
2017-Jun-16 18:01N 38°02' E 023°36'0 0.0
2017-Jun-16 17:30N 38°02' E 023°36'0 0.0
2017-Jun-16 17:01N 38°02' E 023°36'0 0.0
2017-Jun-16 16:30N 38°02' E 023°36'0 0.0
2017-Jun-16 16:00N 38°02' E 023°36'0 0.0
2017-Jun-16 15:30N 38°02' E 023°36'0 0.0
2017-Jun-16 15:01N 38°02' E 023°36'0 0.0
2017-Jun-16 14:30N 38°02' E 023°36'0 0.3
2017-Jun-16 13:31N 38°02' E 023°35'2 4.2
2017-Jun-16 13:01N 38°00' E 023°34'3 6.5
2017-Jun-16 12:30N 37°57' E 023°35'2 3.5
2017-Jun-16 12:01N 37°57' E 023°37'0 0.0
2017-Jun-16 11:30N 37°57' E 023°37'0 0.0
2017-Jun-16 11:01N 37°57' E 023°37'0 0.0
2017-Jun-16 10:31N 37°57' E 023°37'0 0.0
2017-Jun-16 10:00N 37°57' E 023°37'0 0.0
2017-Jun-16 09:30N 37°57' E 023°37'0 0.0
2017-Jun-16 09:00N 37°57' E 023°37'0 0.0
2017-Jun-16 08:30N 37°57' E 023°37'3 5.8
2017-Jun-16 08:01N 37°57' E 023°33'4 7.7
2017-Jun-16 07:30N 38°01' E 023°32'1 2.1
2017-Jun-16 07:00N 38°02' E 023°32'0 0.0
2017-Jun-16 06:31N 38°02' E 023°32'0 0.0
2017-Jun-16 06:00N 38°02' E 023°32'0 0.0
2017-Jun-16 05:30N 38°02' E 023°32'2 3.1
2017-Jun-16 05:00N 38°02' E 023°30'4 8.3
2017-Jun-16 04:31N 37°60' E 023°26'3 5.3
2017-Jun-16 04:01N 37°57' E 023°24'4 8.1
2017-Jun-16 03:30N 37°56' E 023°19'4 8.0
2017-Jun-16 03:00N 37°56' E 023°14'  
Track history (hours):
 
Tides and Currents Weather Stations Pressure Air Temp Water Temp Dewpoint Dewpoint Depression Visibility Wind Speed Wind Dir Waves Ship Positions

Aegean Tiffany

Last reported at 2017-Jun-22 22:15 UTC. Time now 2017-Jun-27 22:36 UTC.
Position N 37°55' E 023°11'.

Length 80 m; draft 5.6 m.

Type: Tanker. MMSI: 240870000.

Date/timePositionNaut miles runAvg speedWind from/ knotsBaromVisibWave heightAir tempDewpointWater temp
2017-Jun-22 22:15N 37°55' E 023°11'2 7.9
2017-Jun-22 22:00N 37°55' E 023°14'4 7.6
2017-Jun-22 21:30N 37°56' E 023°18'4 7.9
2017-Jun-22 21:00N 37°57' E 023°23'2 5.0
2017-Jun-22 20:31N 37°59' E 023°25'4 7.7
2017-Jun-22 20:00N 38°01' E 023°29'2 4.9
2017-Jun-22 19:30N 38°02' E 023°32'0 0.0
2017-Jun-22 19:01N 38°02' E 023°32'0 0.0
2017-Jun-22 06:56N 38°02' E 023°32'0 0.0
2017-Jun-22 06:30N 38°02' E 023°32'0 0.0
2017-Jun-22 06:00N 38°02' E 023°32'0 0.0
2017-Jun-22 05:30N 38°02' E 023°32'0 0.0
2017-Jun-22 05:00N 38°02' E 023°32'0 0.0
2017-Jun-22 04:30N 38°02' E 023°32'0 0.0
2017-Jun-22 04:00N 38°02' E 023°32'0 0.0
2017-Jun-22 03:30N 38°02' E 023°32'0 0.0
2017-Jun-22 03:00N 38°02' E 023°32'0 0.0
2017-Jun-22 02:30N 38°02' E 023°32'0 0.0
2017-Jun-22 02:00N 38°02' E 023°32'0 0.0
2017-Jun-22 01:30N 38°02' E 023°32'0 0.0
2017-Jun-22 01:00N 38°02' E 023°32'0 0.0
2017-Jun-22 00:30N 38°02' E 023°32'0 0.4
2017-Jun-22 00:01N 38°02' E 023°32'3 6.2
2017-Jun-21 23:30N 38°02' E 023°36'0 0.2
2017-Jun-21 23:00N 38°02' E 023°36'0 0.0
2017-Jun-21 22:30N 38°02' E 023°36'0 0.0
2017-Jun-21 22:00N 38°02' E 023°36'0 0.0
2017-Jun-21 21:31N 38°02' E 023°36'0 0.0
2017-Jun-21 21:00N 38°02' E 023°36'0 0.0
2017-Jun-21 20:30N 38°02' E 023°36'0 0.0
2017-Jun-21 20:01N 38°02' E 023°36'0 0.0
2017-Jun-21 19:30N 38°02' E 023°36'0 0.0
2017-Jun-21 19:00N 38°02' E 023°36'0 0.0
2017-Jun-21 18:30N 38°02' E 023°36'1 2.2
2017-Jun-21 18:00N 38°02' E 023°34'3 5.7
2017-Jun-21 17:30N 38°02' E 023°31'0 0.0
2017-Jun-21 17:00N 38°02' E 023°31'0 0.0
2017-Jun-21 16:30N 38°02' E 023°31'0 0.0
2017-Jun-21 16:01N 38°02' E 023°31'0 0.0
2017-Jun-21 15:30N 38°02' E 023°31'0 0.0
2017-Jun-21 15:00N 38°02' E 023°31'0 0.0
2017-Jun-21 14:30N 38°02' E 023°31'0 0.0
2017-Jun-21 13:31N 38°02' E 023°31'0 0.0
2017-Jun-21 13:00N 38°02' E 023°31'0 0.0
2017-Jun-21 12:30N 38°02' E 023°31'0 0.0
2017-Jun-21 12:00N 38°02' E 023°31'0 0.0
2017-Jun-21 11:30N 38°02' E 023°31'0 0.0
2017-Jun-21 11:00N 38°02' E 023°31'0 0.0
2017-Jun-21 10:30N 38°02' E 023°31'0 0.0
2017-Jun-21 10:00N 38°02' E 023°31'0 0.0
2017-Jun-21 09:31N 38°02' E 023°31'0 0.0
2017-Jun-21 09:00N 38°02' E 023°31'0 0.3
2017-Jun-21 08:30N 38°02' E 023°31'3 6.0
2017-Jun-21 08:00N 38°00' E 023°28'3 5.6
2017-Jun-21 07:31N 37°58' E 023°26'4 8.2
2017-Jun-21 07:00N 37°57' E 023°21'4 8.7
2017-Jun-21 06:30N 37°56' E 023°16'4 8.7
2017-Jun-21 06:00N 37°55' E 023°10'  
2017-Jun-17 21:59N 37°55' E 023°09'4 7.8
2017-Jun-17 21:30N 37°56' E 023°14'4 8.1
2017-Jun-17 21:01N 37°56' E 023°19'4 8.0
2017-Jun-17 20:30N 37°57' E 023°24'3 5.0
2017-Jun-17 20:00N 37°59' E 023°25'4 7.9
2017-Jun-17 19:30N 38°01' E 023°30'2 3.9
2017-Jun-17 19:00N 38°02' E 023°32'0 0.0
2017-Jun-17 05:22N 38°02' E 023°32'1 1.9
2017-Jun-17 05:01N 38°02' E 023°31'0 0.7
2017-Jun-17 04:31N 38°02' E 023°31'0 0.0
2017-Jun-17 04:01N 38°02' E 023°31'0 0.0
2017-Jun-17 03:31N 38°02' E 023°31'0 0.0
2017-Jun-17 03:00N 38°02' E 023°31'0 0.0
2017-Jun-17 02:30N 38°02' E 023°31'0 0.0
2017-Jun-17 02:01N 38°02' E 023°31'0 0.0
2017-Jun-17 01:31N 38°02' E 023°31'0 0.0
2017-Jun-17 01:00N 38°02' E 023°31'0 0.0
2017-Jun-17 00:30N 38°02' E 023°31'0 0.0
2017-Jun-17 00:00N 38°02' E 023°31'0 0.4
2017-Jun-16 23:31N 38°02' E 023°31'3 6.4
2017-Jun-16 23:01N 38°02' E 023°35'1 1.2
2017-Jun-16 22:30N 38°02' E 023°36'0 0.0
2017-Jun-16 22:01N 38°02' E 023°36'0 0.0
2017-Jun-16 21:30N 38°02' E 023°36'0 0.0
2017-Jun-16 21:00N 38°02' E 023°36'0 0.0
2017-Jun-16 20:30N 38°02' E 023°36'0 0.0
2017-Jun-16 20:00N 38°02' E 023°36'0 0.0
2017-Jun-16 19:31N 38°02' E 023°36'0 0.0
2017-Jun-16 19:00N 38°02' E 023°36'0 0.0
2017-Jun-16 18:31N 38°02' E 023°36'0 0.0
2017-Jun-16 18:01N 38°02' E 023°36'0 0.0
2017-Jun-16 17:30N 38°02' E 023°36'0 0.0
2017-Jun-16 17:01N 38°02' E 023°36'0 0.0
2017-Jun-16 16:30N 38°02' E 023°36'0 0.0
2017-Jun-16 16:00N 38°02' E 023°36'0 0.0
2017-Jun-16 15:30N 38°02' E 023°36'0 0.0
2017-Jun-16 15:01N 38°02' E 023°36'0 0.0
2017-Jun-16 14:30N 38°02' E 023°36'0 0.3
2017-Jun-16 13:31N 38°02' E 023°35'2 4.2
2017-Jun-16 13:01N 38°00' E 023°34'3 6.5
2017-Jun-16 12:30N 37°57' E 023°35'2 3.5
2017-Jun-16 12:01N 37°57' E 023°37'0 0.0
2017-Jun-16 11:30N 37°57' E 023°37'0 0.0
2017-Jun-16 11:01N 37°57' E 023°37'0 0.0
2017-Jun-16 10:31N 37°57' E 023°37'0 0.0
2017-Jun-16 10:00N 37°57' E 023°37'0 0.0
2017-Jun-16 09:30N 37°57' E 023°37'0 0.0
2017-Jun-16 09:00N 37°57' E 023°37'0 0.0
2017-Jun-16 08:30N 37°57' E 023°37'3 5.8
2017-Jun-16 08:01N 37°57' E 023°33'4 7.7
2017-Jun-16 07:30N 38°01' E 023°32'1 2.1
2017-Jun-16 07:00N 38°02' E 023°32'0 0.0
2017-Jun-16 06:31N 38°02' E 023°32'0 0.0
2017-Jun-16 06:00N 38°02' E 023°32'0 0.0
2017-Jun-16 05:30N 38°02' E 023°32'2 3.1
2017-Jun-16 05:00N 38°02' E 023°30'4 8.3
2017-Jun-16 04:31N 37°60' E 023°26'3 5.3
2017-Jun-16 04:01N 37°57' E 023°24'4 8.1
2017-Jun-16 03:30N 37°56' E 023°19'4 8.0
2017-Jun-16 03:00N 37°56' E 023°14'  

Dump ship's entire track history